Gable, South Carolina
Current Conditions -  °F | °C
As of 1:15 PM on Monday 22 Dec 2014 (Local Time) from KSMS Reporting Station
Moderate Rain Moderate Rain  
Wind Chill: 41°   Ceiling: 500
Heat Index: 45°   Visibility: 5mi
Dew Point: 43°   Wind: 7mph
Humidity: 93%   Direction: NA
Pressure: 30.06"   Gusts: NA
Location:  33.82°N, 80.11°W
Report Text: KSMS 221815Z AUTO VRB06KT 5SM RA OVC005 07/06 A3006 RMK AO2
Loading
Personal Weather Stations






























Interactive Weather Map New forecast layout! Learn more

10-Day Weather Forecast

Advertisements
Track Severe Weather on mobile